Time;durP1;ratioP1;P1;durP2;ratioP2;P2;SDS_P1;SDS_P2;PMS_P1;PMS_P2;Temp;Humidity;BMP_temperature;BMP_pressure;BME280_temperature;BME280_humidity;BME280_pressure;Samples;Min_cycle;Max_cycle;Signal;HPM_P1;HPM_P2
2022/12/10 00:02:05;;;;;;;73.20;38.08;;;;;;;7.82;100.00;99360.25;5070211;28;20482;-69
2022/12/10 00:04:30;;;;;;;64.82;36.58;;;;;;;7.63;100.00;99352.31;5051888;28;20093;-69
2022/12/10 00:06:56;;;;;;;66.22;35.95;;;;;;;7.64;100.00;99350.63;5070409;28;20562;-69
2022/12/10 00:09:21;;;;;;;75.75;39.50;;;;;;;7.72;100.00;99362.22;5070482;28;20077;-70
2022/12/10 00:11:47;;;;;;;79.88;40.97;;;;;;;7.77;100.00;99378.06;5070320;28;20123;-70
2022/12/10 00:14:13;;;;;;;59.80;35.10;;;;;;;7.17;100.00;99302.97;5070833;28;20078;-70
2022/12/10 00:16:39;;;;;;;63.75;34.55;;;;;;;7.65;100.00;99377.56;5051991;28;20033;-70
2022/12/10 00:19:04;;;;;;;60.55;35.20;;;;;;;7.59;100.00;99370.13;5069710;28;20039;-70
2022/12/10 00:21:33;;;;;;;77.20;37.97;;;;;;;7.03;100.00;99292.38;5070331;28;20025;-69
2022/12/10 00:23:59;;;;;;;71.85;38.30;;;;;;;7.64;100.00;99386.03;5052777;28;20028;-71
2022/12/10 00:26:32;;;;;;;76.97;38.92;;;;;;;7.00;100.00;99290.75;5069727;28;20107;-71
2022/12/10 00:29:00;;;;;;;80.03;39.05;;;;;;;7.45;100.00;99387.34;5069794;28;20039;-68
2022/12/10 00:31:32;;;;;;;75.55;38.28;;;;;;;7.52;100.00;99382.13;5052292;28;20040;-70
2022/12/10 00:34:00;;;;;;;72.82;39.10;;;;;;;7.52;100.00;99386.34;5052217;28;20483;-70
2022/12/10 00:36:35;;;;;;;70.75;37.30;;;;;;;7.44;100.00;99363.78;5069717;28;20123;-71
2022/12/10 00:39:02;;;;;;;68.32;36.53;;;;;;;7.81;100.00;99377.13;5072928;28;20028;-70
2022/12/10 00:41:29;;;;;;;78.18;40.10;;;;;;;6.89;100.00;99270.81;5074239;28;20111;-70
2022/12/10 00:43:56;;;;;;;74.07;37.97;;;;;;;7.49;100.00;99345.94;5073603;28;20037;-71
2022/12/10 00:46:23;;;;;;;69.85;37.13;;;;;;;7.76;100.00;99355.34;5056243;28;20020;-71
2022/12/10 00:48:49;;;;;;;78.45;39.25;;;;;;;6.91;100.00;99231.19;5073483;28;20047;-70
2022/12/10 00:51:18;;;;;;;81.95;39.75;;;;;;;7.59;100.00;99375.19;5073648;28;20028;-71
2022/12/10 00:53:44;;;;;;;73.97;39.08;;;;;;;7.83;100.00;99372.03;5055715;28;20037;-71
2022/12/10 00:56:11;;;;;;;63.30;36.45;;;;;;;7.37;100.00;99265.38;5073574;28;20037;-71
2022/12/10 00:58:38;;;;;;;69.60;38.45;;;;;;;7.80;100.00;99364.53;5073539;28;20024;-71
2022/12/10 01:01:20;;;;;;;72.65;37.13;;;;;;;7.29;100.00;99287.50;5073283;28;20130;-71
2022/12/10 01:03:47;;;;;;;;;;;;;;;7.90;100.00;99363.41;5074009;28;20033;-71
2022/12/10 01:06:16;;;;;;;71.72;38.58;;;;;;;7.33;100.00;99284.03;5072981;28;20306;-71
2022/12/10 01:08:43;;;;;;;71.88;39.80;;;;;;;7.63;100.00;99354.00;5073286;28;20115;-71
2022/12/10 01:11:10;;;;;;;66.57;38.30;;;;;;;7.18;100.00;99274.31;5073497;28;20077;-70
2022/12/10 01:13:36;;;;;;;75.35;40.58;;;;;;;7.23;100.00;99305.34;5073415;28;20485;-70
2022/12/10 01:16:06;;;;;;;71.20;40.63;;;;;;;7.50;100.00;99350.16;5073294;28;20039;-71
2022/12/10 01:18:32;;;;;;;74.75;41.13;;;;;;;7.19;100.00;99283.56;5055255;28;20624;-69
2022/12/10 01:21:09;;;;;;;71.78;38.88;;;;;;;7.45;100.00;99329.19;5055259;28;20119;-70
2022/12/10 01:23:37;;;;;;;75.53;42.03;;;;;;;7.11;100.00;99293.03;5055153;28;20032;-70
2022/12/10 01:26:05;;;;;;;81.40;42.80;;;;;;;7.45;100.00;99364.59;5054979;28;20043;-70
2022/12/10 01:28:35;;;;;;;73.70;41.85;;;;;;;7.17;100.00;99300.47;5072970;28;20052;-70
2022/12/10 01:31:03;;;;;;;76.30;45.05;;;;;;;6.79;100.00;99279.47;5072226;28;20025;-70
2022/12/10 01:33:29;;;;;;;77.45;41.72;;;;;;;7.14;100.00;99288.72;5073287;28;20482;-70
2022/12/10 01:35:55;;;;;;;73.43;40.47;;;;;;;7.21;100.00;99281.81;5055075;28;20111;-70
2022/12/10 01:38:20;;;;;;;72.95;40.08;;;;;;;7.03;100.00;99271.28;5072619;28;20115;-69
2022/12/10 01:40:45;;;;;;;77.60;42.28;;;;;;;7.00;100.00;99273.91;5054574;28;20459;-69
2022/12/10 01:43:15;;;;;;;88.93;43.05;;;;;;;6.91;100.00;99264.00;5072194;28;20509;-69
2022/12/10 01:45:40;;;;;;;83.40;41.65;;;;;;;7.33;100.00;99367.44;5072187;28;20082;-69
2022/12/10 01:48:07;;;;;;;84.72;38.38;;;;;;;6.17;100.00;99201.03;5071965;28;20500;-70
2022/12/10 01:50:32;;;;;;;80.35;37.63;;;;;;;7.15;100.00;99365.38;5054391;28;20086;-70
2022/12/10 01:52:58;;;;;;;84.45;41.47;;;;;;;6.88;100.00;99269.16;5072069;28;20036;-70
2022/12/10 01:55:45;;;;;;;81.30;38.70;;;;;;;7.29;100.00;99358.28;5072474;28;20024;-69
2022/12/10 01:58:12;;;;;;;86.65;37.55;;;;;;;6.96;100.00;99329.59;5072445;28;20099;-70
2022/12/10 02:00:45;;;;;;;77.78;37.08;;;;;;;7.16;100.00;99327.41;5071247;28;20056;-69
2022/12/10 02:03:20;;;;;;;80.75;36.70;;;;;;;6.79;100.00;99271.09;5072701;28;20028;-70
2022/12/10 02:06:02;;;;;;;79.78;36.92;;;;;;;6.73;100.00;99261.97;5071808;28;20040;-70
2022/12/10 02:08:35;;;;;;;80.50;38.58;;;;;;;7.13;100.00;99321.63;5072231;28;20119;-69
2022/12/10 02:11:18;;;;;;;82.22;38.20;;;;;;;7.29;100.00;99341.41;5054460;28;20104;-69
2022/12/10 02:13:54;;;;;;;95.22;39.10;;;;;;;7.14;100.00;99290.41;5072713;28;20552;-70
2022/12/10 02:16:29;;;;;;;111.60;42.03;;;;;;;6.42;100.00;99195.38;5072161;28;20024;-70
2022/12/10 02:19:03;;;;;;;93.80;39.35;;;;;;;7.44;100.00;99337.66;5053637;28;20031;-71
2022/12/10 02:21:36;;;;;;;130.85;43.70;;;;;;;6.67;100.00;99241.91;5054417;28;20465;-70
2022/12/10 02:24:07;;;;;;;120.47;41.45;;;;;;;6.67;100.00;99251.19;5072658;28;20031;-70
2022/12/10 02:26:58;;;;;;;113.70;43.95;;;;;;;7.35;100.00;99332.84;5071688;28;20024;-72
2022/12/10 02:29:31;;;;;;;116.93;40.85;;;;;;;7.25;100.00;99339.00;5071875;28;20067;-70
2022/12/10 02:32:03;;;;;;;87.93;38.53;;;;;;;6.67;100.00;99236.84;5071842;28;20031;-70
2022/12/10 02:34:33;;;;;;;83.45;36.10;;;;;;;7.20;100.00;99318.06;5071672;28;20028;-70
2022/12/10 02:37:06;;;;;;;78.75;35.90;;;;;;;7.06;100.00;99244.28;5071517;28;20029;-69
2022/12/10 02:39:38;;;;;;;69.03;33.55;;;;;;;6.87;100.00;99226.25;5053571;28;20119;-70
2022/12/10 02:42:06;;;;;;;76.97;33.80;;;;;;;7.50;100.00;99319.81;5071150;28;20031;-70
2022/12/10 02:44:35;;;;;;;86.68;35.58;;;;;;;6.92;100.00;99234.53;5070946;28;20044;-70
2022/12/10 02:47:03;;;;;;;77.78;35.13;;;;;;;7.37;100.00;99300.78;5071629;28;20195;-70
2022/12/10 02:49:29;;;;;;;85.32;34.60;;;;;;;6.49;100.00;99160.72;5071429;28;20029;-69
2022/12/10 02:51:55;;;;;;;75.72;32.95;;;;;;;7.00;100.00;99228.44;5071185;28;20036;-70
2022/12/10 02:54:42;;;;;;;69.35;32.33;;;;;;;7.49;100.00;99300.44;5071361;28;20024;-70
2022/12/10 02:57:11;;;;;;;85.95;32.75;;;;;;;6.91;100.00;99232.91;5071346;28;20024;-70
2022/12/10 03:00:01;;;;;;;107.25;35.03;;;;;;;7.29;100.00;99312.78;5070692;28;20483;-71
2022/12/10 03:02:54;;;;;;;100.38;32.78;;;;;;;7.44;100.00;99304.78;5071233;28;20471;-70
2022/12/10 03:05:30;;;;;;;123.57;33.38;;;;;;;7.24;100.00;99289.31;5064443;28;20098;-70
2022/12/10 03:08:21;;;;;;;131.82;34.00;;;;;;;7.31;100.00;99290.81;5070778;28;20063;-69
2022/12/10 03:10:58;;;;;;;109.28;32.75;;;;;;;7.36;100.00;99304.16;5071272;28;20039;-70
2022/12/10 03:14:03;;;;;;;116.45;34.83;;;;;;;7.19;100.00;99283.56;5070502;28;20051;-70
2022/12/10 03:16:38;;;;;;;103.22;34.08;;;;;;;7.23;100.00;99293.53;4989240;28;20126;-70
2022/12/10 03:19:07;;;;;;;109.57;33.20;;;;;;;6.73;100.00;99221.56;5054627;28;20106;-71
2022/12/10 03:21:36;;;;;;;105.80;33.80;;;;;;;6.94;100.00;99236.16;5057639;28;20123;-70
2022/12/10 03:24:03;;;;;;;114.75;34.05;;;;;;;7.07;100.00;99283.88;5052763;28;20033;-68
2022/12/10 03:26:29;;;;;;;189.18;34.67;;;;;;;6.74;100.00;99256.03;5070642;28;20082;-70
2022/12/10 03:29:23;;;;;;;107.90;32.55;;;;;;;6.74;100.00;99220.69;5052320;28;20534;-69
2022/12/10 03:31:52;;;;;;;149.75;35.35;;;;;;;7.11;100.00;99296.38;5069812;28;20044;-69
2022/12/10 03:34:18;;;;;;;142.48;35.17;;;;;;;6.22;100.00;99149.59;5052182;28;20123;-70
2022/12/10 03:36:44;;;;;;;159.80;37.33;;;;;;;7.06;100.00;99292.28;5070179;28;20383;-69
2022/12/10 03:39:10;;;;;;;155.43;37.42;;;;;;;7.01;100.00;99293.25;5069958;28;20564;-70
2022/12/10 03:41:35;;;;;;;123.28;34.92;;;;;;;6.95;100.00;99278.22;5070365;28;20031;-69
2022/12/10 03:44:01;;;;;;;120.45;36.42;;;;;;;6.63;100.00;99194.88;5070139;28;20468;-71
2022/12/10 03:46:29;;;;;;;119.05;35.58;;;;;;;6.66;100.00;99199.00;5051833;28;20422;-69
2022/12/10 03:48:56;;;;;;;135.43;35.45;;;;;;;7.29;100.00;99282.44;5086663;28;20039;-70
2022/12/10 03:51:21;;;;;;;137.63;36.95;;;;;;;6.60;100.00;99202.50;5090729;28;20124;-69
2022/12/10 03:53:50;;;;;;;118.85;36.28;;;;;;;7.11;100.00;99282.91;5090889;28;20505;-70
2022/12/10 03:56:16;;;;;;;123.47;34.92;;;;;;;7.06;100.00;99267.88;5090444;28;20510;-70
2022/12/10 03:58:42;;;;;;;99.75;34.30;;;;;;;6.52;100.00;99185.88;5091009;28;20032;-71
2022/12/10 04:01:07;;;;;;;97.30;34.55;;;;;;;7.07;100.00;99271.22;5072038;28;20048;-70
2022/12/10 04:03:38;;;;;;;89.78;33.95;;;;;;;6.84;100.00;99188.44;5089864;28;20137;-70
2022/12/10 04:06:05;;;;;;;95.00;33.13;;;;;;;7.19;100.00;99256.56;5090358;28;20437;-70
2022/12/10 04:08:30;;;;;;;100.53;33.05;;;;;;;6.94;100.00;99222.69;5089965;28;20107;-70
2022/12/10 04:11:05;;;;;;;95.47;33.20;;;;;;;7.08;100.00;99258.56;5090476;28;20630;-71
2022/12/10 04:16:28;;;;;;;82.47;32.80;;;;;;;7.21;100.00;99248.97;5054374;28;20414;-70
2022/12/10 04:19:03;;;;;;;76.95;31.13;;;;;;;6.80;100.00;99161.59;5054294;28;20044;-70
2022/12/10 04:27:12;;;;;;;108.13;35.10;;;;;;;7.18;100.00;99261.66;5054440;28;20122;-71
2022/12/10 04:29:38;;;;;;;103.95;39.78;;;;;;;6.55;100.00;99153.00;5052520;28;20043;-70
2022/12/10 04:32:05;;;;;;;90.25;38.13;;;;;;;7.42;100.00;99249.22;5053772;28;20108;-71
2022/12/10 04:34:31;;;;;;;102.72;39.25;;;;;;;7.26;100.00;99237.84;5053597;28;20032;-70
2022/12/10 04:37:00;;;;;;;114.82;43.78;;;;;;;6.67;100.00;99170.38;5052433;28;20052;-70
2022/12/10 04:39:26;;;;;;;93.90;42.45;;;;;;;6.82;100.00;99162.38;5053683;28;20044;-69
2022/12/10 04:41:52;;;;;;;101.75;46.80;;;;;;;6.61;100.00;99163.78;5053637;28;20037;-69
2022/12/10 04:44:18;;;;;;;88.72;45.30;;;;;;;6.95;100.00;99212.53;5053501;28;20110;-68
2022/12/10 04:46:44;;;;;;;86.28;45.72;;;;;;;7.00;100.00;99242.75;5053276;28;20491;-71
2022/12/10 04:49:10;;;;;;;92.63;46.00;;;;;;;7.01;100.00;99163.59;5052962;28;20037;-70
2022/12/10 04:51:35;;;;;;;91.00;44.22;;;;;;;6.91;100.00;99155.41;5035765;28;20025;-70
2022/12/10 04:54:01;;;;;;;89.15;44.25;;;;;;;7.34;100.00;99241.00;5053542;28;20029;-70
2022/12/10 04:56:27;;;;;;;82.57;43.08;;;;;;;7.13;100.00;99175.06;5053015;28;20040;-69
2022/12/10 04:58:55;;;;;;;61.13;30.65;;;;;;;9.35;100.00;99194.13;5052985;28;20028;-71
2022/12/10 05:01:21;;;;;;;75.97;38.75;;;;;;;7.97;100.00;99152.31;5053355;28;20047;-67
2022/12/10 05:03:46;;;;;;;76.60;41.22;;;;;;;7.72;100.00;99237.41;5053449;28;20120;-71
2022/12/10 05:06:13;;;;;;;82.82;43.00;;;;;;;7.09;100.00;99143.97;5053201;28;20059;-70
2022/12/10 05:08:40;;;;;;;73.80;41.30;;;;;;;6.88;100.00;99072.13;5053392;28;20029;-69
2022/12/10 05:11:27;;;;;;;75.93;43.47;;;;;;;7.73;100.00;99218.81;5071210;28;20059;-69
2022/12/10 05:13:54;;;;;;;89.65;49.17;;;;;;;7.22;100.00;99137.72;5055007;28;20079;-69
2022/12/10 05:16:21;;;;;;;100.10;57.70;;;;;;;7.62;100.00;99211.56;5072673;28;20094;-70
2022/12/10 05:18:47;;;;;;;103.55;62.63;;;;;;;7.55;100.00;99219.34;5054992;28;20388;-69
2022/12/10 05:21:15;;;;;;;85.60;50.50;;;;;;;7.11;100.00;99123.72;5073115;28;20062;-69
2022/12/10 05:23:44;;;;;;;88.95;51.83;;;;;;;7.78;100.00;99250.69;5071929;28;20032;-69
2022/12/10 05:26:21;;;;;;;77.97;42.05;;;;;;;7.23;100.00;99148.66;5072961;28;20049;-69
2022/12/10 05:28:52;;;;;;;79.43;42.75;;;;;;;7.55;100.00;99239.56;5073023;28;20041;-69
2022/12/10 05:31:27;;;;;;;89.88;45.30;;;;;;;7.60;100.00;99255.47;5072264;28;20031;-71
2022/12/10 05:33:53;;;;;;;88.15;43.58;;;;;;;7.43;100.00;99218.00;5072590;28;20489;-69
2022/12/10 05:36:21;;;;;;;83.93;40.60;;;;;;;7.54;100.00;99235.41;5075370;28;20027;-68
2022/12/10 05:38:47;;;;;;;92.28;45.90;;;;;;;7.22;100.00;99183.19;5083163;28;20028;-70
2022/12/10 05:41:16;;;;;;;88.93;47.75;;;;;;;7.41;100.00;99252.59;5073147;28;20082;-69
2022/12/10 05:43:43;;;;;;;87.95;49.42;;;;;;;7.56;100.00;99248.84;5070918;28;20070;-69
2022/12/10 05:46:18;;;;;;;130.00;84.32;;;;;;;7.29;100.00;99227.66;5062360;28;20033;-69
2022/12/10 05:48:43;;;;;;;147.20;91.95;;;;;;;7.33;100.00;99246.13;5053855;28;20115;-71
2022/12/10 05:51:13;;;;;;;153.45;89.88;;;;;;;6.87;100.00;99150.47;5072211;28;20451;-69
2022/12/10 05:53:39;;;;;;;120.18;73.55;;;;;;;7.35;100.00;99249.44;5073644;28;20070;-68
2022/12/10 05:56:11;;;;;;;107.05;64.22;;;;;;;7.21;100.00;99228.75;5077137;28;20818;-69
2022/12/10 05:58:38;;;;;;;103.53;66.38;;;;;;;7.01;100.00;99153.47;5074326;28;20539;-70
2022/12/10 06:01:10;;;;;;;88.60;51.75;;;;;;;6.70;100.00;99123.13;5092305;28;20106;-71
2022/12/10 06:03:35;;;;;;;59.25;36.35;;;;;;;7.56;100.00;99231.13;5092179;28;20024;-69
2022/12/10 06:06:00;;;;;;;70.45;44.90;;;;;;;7.07;100.00;99155.00;5092229;28;20170;-69
2022/12/10 06:08:26;;;;;;;67.00;43.17;;;;;;;7.37;100.00;99190.34;5073610;28;20093;-68
2022/12/10 06:10:51;;;;;;;65.40;44.30;;;;;;;7.75;100.00;99207.81;5091251;28;20072;-69
2022/12/10 06:13:17;;;;;;;52.92;36.22;;;;;;;7.63;100.00;99225.84;5073661;28;20203;-69
2022/12/10 06:15:43;;;;;;;53.42;35.58;;;;;;;7.42;100.00;99154.84;5072780;28;20115;-69
2022/12/10 06:18:08;;;;;;;46.40;32.00;;;;;;;7.48;100.00;99163.09;5071496;28;20024;-70
2022/12/10 06:20:37;;;;;;;67.22;42.60;;;;;;;7.72;100.00;99237.41;5071405;28;20085;-70
2022/12/10 06:23:02;;;;;;;44.90;32.85;;;;;;;7.31;100.00;99169.50;5071450;28;20111;-69
2022/12/10 06:25:28;;;;;;;56.53;38.95;;;;;;;7.82;100.00;99237.09;5071005;28;20115;-69
2022/12/10 06:27:53;;;;;;;97.90;60.45;;;;;;;7.70;100.00;99246.75;5069685;28;20048;-69
2022/12/10 06:30:18;;;;;;;63.22;43.92;;;;;;;7.80;100.00;99240.56;5070425;28;20036;-69
2022/12/10 06:32:44;;;;;;;88.20;58.33;;;;;;;7.64;100.00;99227.53;5070394;28;20154;-70
2022/12/10 06:35:10;;;;;;;85.05;56.92;;;;;;;7.41;100.00;99170.88;5070374;28;20028;-67
2022/12/10 06:37:36;;;;;;;82.15;52.75;;;;;;;7.72;100.00;99233.19;5070981;28;20029;-69
2022/12/10 06:40:02;;;;;;;63.63;44.78;;;;;;;7.37;100.00;99169.31;5070763;28;20040;-71
2022/12/10 06:42:28;;;;;;;75.32;55.30;;;;;;;7.26;100.00;99153.59;5037530;28;20411;-69
2022/12/10 06:44:53;;;;;;;81.85;61.75;;;;;;;7.25;100.00;99159.56;5050118;28;20025;-68
2022/12/10 06:47:18;;;;;;;63.40;47.05;;;;;;;7.88;100.00;99234.38;5051089;28;20033;-68
2022/12/10 06:49:44;;;;;;;66.32;49.63;;;;;;;7.95;100.00;99237.56;5050586;28;20231;-67
2022/12/10 06:52:09;;;;;;;66.35;50.03;;;;;;;7.61;100.00;99161.84;5056171;28;20036;-69
2022/12/10 06:54:35;;;;;;;51.85;41.15;;;;;;;7.51;100.00;99141.91;5090419;28;20024;-69
2022/12/10 06:57:00;;;;;;;56.60;42.72;;;;;;;8.19;100.00;99225.88;5090659;28;20032;-68
2022/12/10 06:59:25;;;;;;;97.78;70.05;;;;;;;8.10;100.00;99223.66;5087738;28;20032;-68
2022/12/10 07:01:51;;;;;;;110.47;77.60;;;;;;;7.81;100.00;99154.50;5090445;28;20052;-68
2022/12/10 07:04:16;;;;;;;82.57;61.55;;;;;;;8.30;100.00;99237.38;5091027;28;20444;-68
2022/12/10 07:06:42;;;;;;;112.38;78.35;;;;;;;7.87;100.00;99158.53;5072272;28;20043;-68
2022/12/10 07:09:09;;;;;;;68.82;49.28;;;;;;;7.75;100.00;99144.56;5091163;28;20047;-67
2022/12/10 07:11:36;;;;;;;53.15;33.58;;;;;;;8.78;100.00;99151.38;5090636;28;20129;-70
2022/12/10 07:14:02;;;;;;;53.28;39.70;;;;;;;8.04;100.00;99137.78;5073082;28;20414;-71
2022/12/10 07:16:30;;;;;;;45.78;33.25;;;;;;;8.53;100.00;99199.50;5090528;28;20422;-70
2022/12/10 07:18:57;;;;;;;41.83;32.15;;;;;;;8.45;100.00;99158.41;5090766;28;20124;-70
2022/12/10 07:21:26;;;;;;;43.58;33.58;;;;;;;8.41;100.00;99129.00;5090156;28;20040;-69
2022/12/10 07:23:54;;;;;;;49.67;36.90;;;;;;;8.36;100.00;99128.28;5090131;28;20028;-70
2022/12/10 07:26:20;;;;;;;43.97;31.42;;;;;;;8.22;100.00;99107.63;5072164;28;20414;-70
2022/12/10 07:28:46;;;;;;;42.80;34.13;;;;;;;8.61;100.00;99134.22;5089428;28;20032;-70
2022/12/10 07:31:11;;;;;;;47.40;34.50;;;;;;;8.11;100.00;99134.16;5071962;28;20032;-69
2022/12/10 07:33:37;;;;;;;50.13;33.25;;;;;;;8.44;100.00;99146.59;5072820;28;20448;-69
2022/12/10 07:36:07;;;;;;;50.20;35.50;;;;;;;8.49;100.00;99213.16;5090514;28;20120;-71
2022/12/10 07:38:33;;;;;;;46.33;32.53;;;;;;;8.87;100.00;99206.00;5090578;28;20137;-70
2022/12/10 07:41:03;;;;;;;46.88;35.40;;;;;;;8.43;100.00;99129.78;5090633;28;20114;-70
2022/12/10 07:43:29;;;;;;;39.67;29.58;;;;;;;9.11;100.00;99151.91;5090855;28;20041;-69
2022/12/10 07:46:02;;;;;;;43.53;32.05;;;;;;;9.15;100.00;99211.78;5084375;28;20028;-68
2022/12/10 07:48:27;;;;;;;41.08;30.45;;;;;;;8.69;100.00;99137.28;5075300;28;20024;-71
2022/12/10 07:50:57;;;;;;;37.03;27.95;;;;;;;9.67;100.00;99203.09;5090774;28;20035;-68
2022/12/10 07:53:23;;;;;;;39.08;28.48;;;;;;;9.09;100.00;99125.78;5090360;28;20154;-68
2022/12/10 07:55:50;;;;;;;39.03;28.88;;;;;;;9.33;100.00;99189.13;5090758;28;20057;-68
2022/12/10 07:58:15;;;;;;;40.28;28.77;;;;;;;9.20;100.00;99106.78;5089989;28;20024;-69
2022/12/10 08:00:40;;;;;;;44.13;30.75;;;;;;;10.04;100.00;99190.72;5090192;28;20505;-68
2022/12/10 08:03:06;;;;;;;46.00;33.85;;;;;;;10.06;100.00;99111.03;5089576;28;20028;-68
2022/12/10 08:05:31;;;;;;;55.92;36.40;;;;;;;9.69;100.00;99102.38;5089400;28;20088;-69
2022/12/10 08:07:57;;;;;;;57.30;37.55;;;;;;;10.30;100.00;99188.81;5071375;28;20035;-68
2022/12/10 08:10:22;;;;;;;60.70;39.28;;;;;;;10.15;100.00;99123.41;5089749;28;20028;-68
2022/12/10 08:12:47;;;;;;;56.35;37.55;;;;;;;10.50;100.00;99205.00;5089553;28;20028;-69
2022/12/10 08:15:13;;;;;;;54.53;38.63;;;;;;;9.99;100.00;99124.88;5089260;28;20039;-68
2022/12/10 08:17:38;;;;;;;53.58;36.13;;;;;;;10.08;100.00;99055.94;5089167;28;20466;-69
2022/12/10 08:20:04;;;;;;;49.90;36.70;;;;;;;10.34;100.00;99121.75;5089532;28;20417;-69
2022/12/10 08:22:29;;;;;;;52.92;36.20;;;;;;;10.67;100.00;99146.69;5089416;28;20449;-69
2022/12/10 08:24:55;;;;;;;44.08;32.53;;;;;;;11.22;100.00;99168.88;5071259;28;20028;-69
2022/12/10 08:27:20;;;;;;;41.83;31.55;;;;;;;10.71;100.00;99125.34;5072193;28;20411;-69
2022/12/10 08:29:45;;;;;;;47.78;34.47;;;;;;;10.41;100.00;99046.13;5089984;28;20039;-70
2022/12/10 08:32:11;;;;;;;43.50;30.70;;;;;;;11.06;100.00;99161.06;5089914;28;20111;-69
2022/12/10 08:34:36;;;;;;;46.30;32.15;;;;;;;10.76;100.00;99098.81;5089996;28;20032;-69
2022/12/10 08:37:03;;;;;;;44.13;32.78;;;;;;;11.29;100.00;99152.41;5090047;28;20032;-69
2022/12/10 08:39:28;;;;;;;58.90;38.90;;;;;;;11.72;100.00;99177.66;5090090;28;20415;-68
2022/12/10 08:41:54;;;;;;;51.65;40.20;;;;;;;11.53;100.00;99186.16;5071684;28;20082;-68
2022/12/10 08:44:19;;;;;;;57.40;42.63;;;;;;;10.96;100.00;99100.50;5089841;28;20470;-68
2022/12/10 08:46:45;;;;;;;59.67;42.30;;;;;;;11.15;100.00;99111.53;5089542;28;20032;-68
2022/12/10 08:49:10;;;;;;;62.50;43.45;;;;;;;11.85;100.00;99176.19;5089858;28;20040;-67
2022/12/10 08:51:36;;;;;;;57.65;37.63;;;;;;;11.84;100.00;99179.66;5089413;28;20447;-69
2022/12/10 08:54:01;;;;;;;51.38;33.38;;;;;;;11.30;100.00;99073.50;5089463;28;20051;-68
2022/12/10 08:56:27;;;;;;;51.20;30.98;;;;;;;11.34;100.00;99016.50;5090045;28;20402;-67
2022/12/10 08:58:53;;;;;;;42.58;28.60;;;;;;;11.59;100.00;99072.16;5091008;28;20438;-68
2022/12/10 09:01:19;;;;;;;48.35;27.63;;;;;;;11.47;100.00;99087.19;5074789;28;20043;-68
2022/12/10 09:03:45;;;;;;;50.40;31.50;;;;;;;11.54;100.00;99075.81;5093298;28;20543;-68
2022/12/10 09:06:14;;;;;;;45.80;30.75;;;;;;;12.04;100.00;99166.78;5075237;28;20024;-68
2022/12/10 09:08:39;;;;;;;47.72;29.73;;;;;;;11.13;100.00;99087.88;5093252;28;20028;-67
2022/12/10 09:11:29;;;;;;;50.00;34.40;;;;;;;11.24;100.00;99090.75;5092913;28;20410;-68
2022/12/10 09:13:55;;;;;;;63.00;43.13;;;;;;;10.81;100.00;99068.13;5089868;28;20065;-68
2022/12/10 09:16:21;;;;;;;52.15;33.38;;;;;;;10.85;100.00;99054.38;5093397;28;20036;-68
2022/12/10 09:18:47;;;;;;;55.40;34.80;;;;;;;11.20;100.00;99030.72;5092966;28;20024;-69
2022/12/10 09:21:16;;;;;;;60.92;35.53;;;;;;;11.67;100.00;99065.00;5092460;28;20031;-68
2022/12/10 09:23:42;;;;;;;54.15;34.97;;;;;;;11.93;100.00;99137.63;5093280;28;20035;-68
2022/12/10 09:26:10;;;;;;;54.47;33.20;;;;;;;11.84;100.00;99113.44;5074821;28;20028;-68
2022/12/10 09:28:36;;;;;;;54.78;33.08;;;;;;;12.09;100.00;99116.47;5092576;28;20502;-70
2022/12/10 09:31:03;;;;;;;54.63;34.78;;;;;;;11.62;100.00;99023.66;5075192;28;20031;-68
2022/12/10 09:33:30;;;;;;;55.95;35.75;;;;;;;12.02;100.00;99102.34;5092796;28;20021;-69
2022/12/10 09:35:55;;;;;;;57.78;36.20;;;;;;;12.18;100.00;99093.06;5092724;28;20508;-69
2022/12/10 09:38:21;;;;;;;55.40;36.03;;;;;;;12.22;100.00;99067.47;5092690;28;20020;-69
2022/12/10 09:41:31;;;;;;;52.50;33.10;;;;;;;12.47;100.00;99085.72;5092566;28;20056;-69
2022/12/10 09:44:18;;;;;;;62.92;40.45;;;;;;;12.60;100.00;99086.75;5092870;28;20036;-69
2022/12/10 09:46:57;;;;;;;53.72;32.30;;;;;;;12.67;100.00;99077.91;5092417;28;20059;-68
2022/12/10 09:50:00;;;;;;;48.75;30.92;;;;;;;12.77;100.00;99069.72;5092381;28;20541;-69
2022/12/10 09:52:34;;;;;;;48.95;32.10;;;;;;;13.08;100.00;99056.19;5092810;28;21057;-68
2022/12/10 09:55:03;;;;;;;49.45;30.40;;;;;;;13.02;100.00;99057.31;5092752;28;20028;-68
2022/12/10 09:57:37;;;;;;;46.58;26.75;;;;;;;13.21;100.00;99075.03;5092604;28;20032;-69
2022/12/10 10:00:15;;;;;;;50.22;29.23;;;;;;;12.77;100.00;99005.13;5074169;28;20040;-69
2022/12/10 10:02:41;;;;;;;41.28;25.55;;;;;;;12.98;100.00;99016.72;5091563;28;20448;-69
2022/12/10 10:05:06;;;;;;;54.60;29.67;;;;;;;13.51;100.00;99063.19;5091921;28;20078;-69
2022/12/10 10:07:36;;;;;;;42.97;26.73;;;;;;;13.35;100.00;99053.91;5092114;28;20024;-69
2022/12/10 10:10:28;;;;;;;46.03;26.08;;;;;;;13.63;100.00;99054.84;5092273;28;20020;-69
2022/12/10 10:13:24;;;;;;;45.75;26.90;;;;;;;13.92;100.00;99038.72;5073817;28;20036;-67
2022/12/10 10:15:51;;;;;;;44.35;25.00;;;;;;;13.17;100.00;98897.50;5063487;28;20110;-70
2022/12/10 10:18:34;;;;;;;44.00;24.83;;;;;;;14.05;100.00;99046.50;5074020;28;20032;-68
2022/12/10 10:21:01;;;;;;;53.80;30.08;;;;;;;13.85;100.00;99004.22;5073605;28;20457;-68
2022/12/10 10:23:26;;;;;;;64.45;36.03;;;;;;;13.76;100.00;98970.72;5073732;28;20032;-69
2022/12/10 10:25:52;;;;;;;45.08;23.83;;;;;;;14.24;100.00;99036.88;5091776;28;20043;-69
2022/12/10 10:28:20;;;;;;;36.80;21.63;;;;;;;14.59;100.00;99040.78;5092007;28;20396;-69
2022/12/10 10:30:46;;;;;;;43.22;22.08;;;;;;;13.87;100.00;98974.28;5073837;28;20028;-69
2022/12/10 10:33:15;;;;;;;33.67;18.30;;;;;;;14.57;100.00;99049.47;5091572;28;20032;-69
2022/12/10 10:35:52;;;;;;;41.80;20.02;;;;;;;14.33;100.00;98964.78;5091967;28;20123;-68
2022/12/10 10:38:25;;;;;;;30.98;15.82;;;;;;;14.14;100.00;98902.88;5091980;28;20030;-69
2022/12/10 10:40:53;;;;;;;29.35;15.07;;;;;;;13.95;100.00;98899.75;5073102;28;20036;-69
2022/12/10 10:43:23;;;;;;;26.90;15.05;;;;;;;14.61;100.00;99038.97;5091606;28;20067;-69
2022/12/10 10:45:58;;;;;;;29.60;15.52;;;;;;;15.02;100.00;99026.22;5091384;28;20038;-69
2022/12/10 10:48:25;;;;;;;28.65;15.68;;;;;;;14.76;100.00;99032.91;5091641;28;20028;-70
2022/12/10 10:51:04;;;;;;;33.33;16.00;;;;;;;14.76;100.00;99044.88;5091536;28;20074;-68
2022/12/10 10:53:51;;;;;;;33.92;15.32;;;;;;;14.91;100.00;99038.84;5091800;28;20058;-69
2022/12/10 10:56:41;;;;;;;30.75;16.35;;;;;;;14.99;100.00;99034.09;5091097;28;20039;-69
2022/12/10 10:59:13;;;;;;;35.35;15.40;;;;;;;14.98;100.00;99039.28;5091135;28;20032;-69
2022/12/10 11:01:50;;;;;;;34.38;16.25;;;;;;;14.74;100.00;99010.88;5087417;28;20058;-71
2022/12/10 11:04:19;;;;;;;32.38;16.45;;;;;;;14.85;100.00;99026.44;5090991;28;20089;-69
2022/12/10 11:06:45;;;;;;;32.75;17.00;;;;;;;14.68;100.00;99018.94;5090775;28;20474;-69
2022/12/10 11:09:21;;;;;;;42.50;23.17;;;;;;;14.22;100.00;98961.19;5091196;28;20506;-70
2022/12/10 11:11:51;;;;;;;45.67;27.08;;;;;;;14.47;100.00;99008.25;5091122;28;20455;-69
2022/12/10 11:14:26;;;;;;;33.55;18.35;;;;;;;14.58;100.00;99028.91;5090619;28;20028;-70
2022/12/10 11:17:16;;;;;;;33.17;19.63;;;;;;;14.04;100.00;98913.72;5090833;28;20036;-70
2022/12/10 11:19:52;;;;;;;50.75;30.95;;;;;;;13.85;100.00;98873.91;5090990;28;20027;-70
2022/12/10 11:22:22;;;;;;;33.20;17.30;;;;;;;14.84;100.00;99019.66;5072005;28;20410;-69
2022/12/10 11:24:48;;;;;;;36.15;19.35;;;;;;;14.94;100.00;99027.59;5090830;28;20054;-70
2022/12/10 11:27:29;;;;;;;38.75;18.63;;;;;;;14.21;100.00;98905.84;5090305;28;20043;-69
2022/12/10 11:30:06;;;;;;;39.13;18.95;;;;;;;14.82;100.00;99012.97;5090978;28;20028;-68
2022/12/10 11:33:14;;;;;;;56.97;27.85;;;;;;;14.95;100.00;99001.94;5089835;28;20032;-69
2022/12/10 11:35:48;;;;;;;40.88;21.10;;;;;;;15.21;100.00;99003.66;5089777;28;20067;-69